sensor_id;sensor_type;location;lat;lon;timestamp;P1;durP1;ratioP1;P2;durP2;ratioP2
66707;SDS011;53622;0.000;0.000;2022-09-12T00:01:25;0.65;;;0.30;;
66707;SDS011;53622;0.000;0.000;2022-09-12T00:03:56;0.55;;;0.35;;
66707;SDS011;53622;0.000;0.000;2022-09-12T00:06:28;0.52;;;0.28;;
66707;SDS011;53622;0.000;0.000;2022-09-12T00:08:59;1.08;;;0.45;;
66707;SDS011;53622;0.000;0.000;2022-09-12T00:11:30;0.30;;;0.30;;
66707;SDS011;53622;0.000;0.000;2022-09-12T00:13:59;0.65;;;0.30;;
66707;SDS011;53622;0.000;0.000;2022-09-12T00:16:30;0.63;;;0.40;;
66707;SDS011;53622;0.000;0.000;2022-09-12T00:19:02;0.50;;;0.50;;
66707;SDS011;53622;0.000;0.000;2022-09-12T00:21:32;0.60;;;0.40;;
66707;SDS011;53622;0.000;0.000;2022-09-12T00:24:03;0.60;;;0.32;;
66707;SDS011;53622;0.000;0.000;2022-09-12T00:26:33;0.40;;;0.40;;
66707;SDS011;53622;0.000;0.000;2022-09-12T00:29:02;0.40;;;0.30;;
66707;SDS011;53622;0.000;0.000;2022-09-12T00:31:32;0.43;;;0.30;;
66707;SDS011;53622;0.000;0.000;2022-09-12T00:34:03;0.40;;;0.30;;
66707;SDS011;53622;0.000;0.000;2022-09-12T00:36:32;0.57;;;0.30;;
66707;SDS011;53622;0.000;0.000;2022-09-12T00:39:02;0.50;;;0.30;;
66707;SDS011;53622;0.000;0.000;2022-09-12T00:41:32;0.60;;;0.40;;
66707;SDS011;53622;0.000;0.000;2022-09-12T00:44:02;0.40;;;0.40;;
66707;SDS011;53622;0.000;0.000;2022-09-12T00:47:12;0.35;;;0.35;;
66707;SDS011;53622;0.000;0.000;2022-09-12T00:49:50;2.13;;;0.32;;
66707;SDS011;53622;0.000;0.000;2022-09-12T00:52:23;0.32;;;0.32;;
66707;SDS011;53622;0.000;0.000;2022-09-12T00:54:57;0.50;;;0.50;;
66707;SDS011;53622;0.000;0.000;2022-09-12T00:57:31;0.50;;;0.45;;
66707;SDS011;53622;0.000;0.000;2022-09-12T01:00:06;0.40;;;0.40;;
66707;SDS011;53622;0.000;0.000;2022-09-12T01:02:42;0.60;;;0.40;;
66707;SDS011;53622;0.000;0.000;2022-09-12T01:05:14;0.40;;;0.40;;
66707;SDS011;53622;0.000;0.000;2022-09-12T01:07:44;0.30;;;0.30;;
66707;SDS011;53622;0.000;0.000;2022-09-12T01:10:16;0.75;;;0.30;;
66707;SDS011;53622;0.000;0.000;2022-09-12T01:12:46;0.30;;;0.30;;
66707;SDS011;53622;0.000;0.000;2022-09-12T01:15:15;0.50;;;0.50;;
66707;SDS011;53622;0.000;0.000;2022-09-12T01:17:52;0.40;;;0.30;;
66707;SDS011;53622;0.000;0.000;2022-09-12T01:23:36;0.28;;;0.28;;
66707;SDS011;53622;0.000;0.000;2022-09-12T01:26:37;0.52;;;0.32;;
66707;SDS011;53622;0.000;0.000;2022-09-12T01:29:25;0.52;;;0.50;;
66707;SDS011;53622;0.000;0.000;2022-09-12T01:32:07;1.08;;;0.40;;
66707;SDS011;53622;0.000;0.000;2022-09-12T01:34:44;0.60;;;0.40;;
66707;SDS011;53622;0.000;0.000;2022-09-12T01:37:19;0.50;;;0.40;;
66707;SDS011;53622;0.000;0.000;2022-09-12T01:40:00;0.85;;;0.40;;
66707;SDS011;53622;0.000;0.000;2022-09-12T01:42:39;0.35;;;0.30;;
66707;SDS011;53622;0.000;0.000;2022-09-12T01:45:17;0.40;;;0.40;;
66707;SDS011;53622;0.000;0.000;2022-09-12T01:47:55;0.82;;;0.50;;
66707;SDS011;53622;0.000;0.000;2022-09-12T01:50:29;0.60;;;0.40;;
66707;SDS011;53622;0.000;0.000;2022-09-12T01:53:00;1.13;;;0.52;;
66707;SDS011;53622;0.000;0.000;2022-09-12T01:55:35;0.40;;;0.30;;
66707;SDS011;53622;0.000;0.000;2022-09-12T01:58:10;0.30;;;0.30;;
66707;SDS011;53622;0.000;0.000;2022-09-12T02:00:44;0.57;;;0.40;;
66707;SDS011;53622;0.000;0.000;2022-09-12T02:03:20;0.45;;;0.43;;
66707;SDS011;53622;0.000;0.000;2022-09-12T02:05:53;0.50;;;0.40;;
66707;SDS011;53622;0.000;0.000;2022-09-12T02:08:26;0.38;;;0.38;;
66707;SDS011;53622;0.000;0.000;2022-09-12T02:10:59;0.60;;;0.40;;
66707;SDS011;53622;0.000;0.000;2022-09-12T02:13:37;0.45;;;0.40;;
66707;SDS011;53622;0.000;0.000;2022-09-12T02:16:10;0.60;;;0.60;;
66707;SDS011;53622;0.000;0.000;2022-09-12T02:18:48;0.43;;;0.40;;
66707;SDS011;53622;0.000;0.000;2022-09-12T02:21:21;0.68;;;0.30;;
66707;SDS011;53622;0.000;0.000;2022-09-12T02:23:54;0.85;;;0.45;;
66707;SDS011;53622;0.000;0.000;2022-09-12T02:26:28;0.40;;;0.30;;
66707;SDS011;53622;0.000;0.000;2022-09-12T02:29:02;0.30;;;0.30;;
66707;SDS011;53622;0.000;0.000;2022-09-12T02:31:33;0.47;;;0.30;;
66707;SDS011;53622;0.000;0.000;2022-09-12T02:34:11;0.30;;;0.30;;
66707;SDS011;53622;0.000;0.000;2022-09-12T02:36:51;0.40;;;0.40;;
66707;SDS011;53622;0.000;0.000;2022-09-12T02:39:26;0.38;;;0.38;;
66707;SDS011;53622;0.000;0.000;2022-09-12T02:41:57;0.60;;;0.50;;
66707;SDS011;53622;0.000;0.000;2022-09-12T02:44:28;0.60;;;0.40;;
66707;SDS011;53622;0.000;0.000;2022-09-12T02:47:00;0.40;;;0.38;;
66707;SDS011;53622;0.000;0.000;2022-09-12T02:49:35;1.90;;;0.68;;
66707;SDS011;53622;0.000;0.000;2022-09-12T02:52:04;0.20;;;0.20;;
66707;SDS011;53622;0.000;0.000;2022-09-12T02:54:34;0.47;;;0.30;;
66707;SDS011;53622;0.000;0.000;2022-09-12T02:57:04;1.23;;;0.50;;
66707;SDS011;53622;0.000;0.000;2022-09-12T02:59:48;2.10;;;0.30;;
66707;SDS011;53622;0.000;0.000;2022-09-12T03:02:26;0.30;;;0.30;;
66707;SDS011;53622;0.000;0.000;2022-09-12T03:05:09;0.38;;;0.20;;
66707;SDS011;53622;0.000;0.000;2022-09-12T03:07:57;0.45;;;0.40;;
66707;SDS011;53622;0.000;0.000;2022-09-12T03:10:52;0.50;;;0.30;;
66707;SDS011;53622;0.000;0.000;2022-09-12T03:13:30;0.35;;;0.35;;
66707;SDS011;53622;0.000;0.000;2022-09-12T03:16:07;0.30;;;0.30;;
66707;SDS011;53622;0.000;0.000;2022-09-12T03:18:48;0.30;;;0.30;;
66707;SDS011;53622;0.000;0.000;2022-09-12T03:21:24;0.35;;;0.35;;
66707;SDS011;53622;0.000;0.000;2022-09-12T03:24:04;0.68;;;0.50;;
66707;SDS011;53622;0.000;0.000;2022-09-12T03:26:42;1.23;;;0.50;;
66707;SDS011;53622;0.000;0.000;2022-09-12T03:29:15;0.45;;;0.38;;
66707;SDS011;53622;0.000;0.000;2022-09-12T03:31:47;0.65;;;0.50;;
66707;SDS011;53622;0.000;0.000;2022-09-12T03:34:18;0.45;;;0.30;;
66707;SDS011;53622;0.000;0.000;2022-09-12T03:36:50;0.30;;;0.30;;
66707;SDS011;53622;0.000;0.000;2022-09-12T03:39:21;0.52;;;0.40;;
66707;SDS011;53622;0.000;0.000;2022-09-12T03:41:53;1.10;;;0.40;;
66707;SDS011;53622;0.000;0.000;2022-09-12T03:44:23;0.60;;;0.20;;
66707;SDS011;53622;0.000;0.000;2022-09-12T03:46:52;1.08;;;0.43;;
66707;SDS011;53622;0.000;0.000;2022-09-12T03:49:21;0.50;;;0.40;;
66707;SDS011;53622;0.000;0.000;2022-09-12T03:51:52;0.52;;;0.30;;
66707;SDS011;53622;0.000;0.000;2022-09-12T03:54:21;0.95;;;0.30;;
66707;SDS011;53622;0.000;0.000;2022-09-12T03:56:50;0.38;;;0.38;;
66707;SDS011;53622;0.000;0.000;2022-09-12T03:59:19;0.30;;;0.30;;
66707;SDS011;53622;0.000;0.000;2022-09-12T04:01:48;0.73;;;0.47;;
66707;SDS011;53622;0.000;0.000;2022-09-12T04:04:17;0.30;;;0.30;;
66707;SDS011;53622;0.000;0.000;2022-09-12T04:06:47;1.02;;;0.40;;
66707;SDS011;53622;0.000;0.000;2022-09-12T04:09:17;0.30;;;0.30;;
66707;SDS011;53622;0.000;0.000;2022-09-12T04:11:47;0.50;;;0.43;;
66707;SDS011;53622;0.000;0.000;2022-09-12T04:14:16;0.52;;;0.40;;
66707;SDS011;53622;0.000;0.000;2022-09-12T04:16:45;0.40;;;0.40;;
66707;SDS011;53622;0.000;0.000;2022-09-12T04:19:14;1.10;;;0.30;;
66707;SDS011;53622;0.000;0.000;2022-09-12T04:21:44;0.30;;;0.30;;
66707;SDS011;53622;0.000;0.000;2022-09-12T04:24:13;0.40;;;0.40;;
66707;SDS011;53622;0.000;0.000;2022-09-12T04:26:44;1.30;;;0.40;;
66707;SDS011;53622;0.000;0.000;2022-09-12T04:29:13;0.52;;;0.35;;
66707;SDS011;53622;0.000;0.000;2022-09-12T04:31:43;1.20;;;0.32;;
66707;SDS011;53622;0.000;0.000;2022-09-12T04:34:12;0.52;;;0.40;;
66707;SDS011;53622;0.000;0.000;2022-09-12T04:36:42;9.00;;;0.50;;
66707;SDS011;53622;0.000;0.000;2022-09-12T04:39:11;2.88;;;0.55;;
66707;SDS011;53622;0.000;0.000;2022-09-12T04:41:40;3.95;;;0.60;;
66707;SDS011;53622;0.000;0.000;2022-09-12T04:44:12;2.70;;;0.50;;
66707;SDS011;53622;0.000;0.000;2022-09-12T04:46:43;1.52;;;0.40;;
66707;SDS011;53622;0.000;0.000;2022-09-12T04:49:14;2.25;;;0.40;;
66707;SDS011;53622;0.000;0.000;2022-09-12T04:51:45;2.15;;;0.52;;
66707;SDS011;53622;0.000;0.000;2022-09-12T04:54:15;1.25;;;0.50;;
66707;SDS011;53622;0.000;0.000;2022-09-12T04:56:47;1.67;;;0.75;;
66707;SDS011;53622;0.000;0.000;2022-09-12T04:59:19;3.15;;;0.80;;
66707;SDS011;53622;0.000;0.000;2022-09-12T05:01:49;0.90;;;0.63;;
66707;SDS011;53622;0.000;0.000;2022-09-12T05:04:18;6.15;;;0.75;;
66707;SDS011;53622;0.000;0.000;2022-09-12T05:06:48;2.50;;;0.40;;
66707;SDS011;53622;0.000;0.000;2022-09-12T05:09:17;1.75;;;0.50;;
66707;SDS011;53622;0.000;0.000;2022-09-12T05:11:46;1.13;;;0.60;;
66707;SDS011;53622;0.000;0.000;2022-09-12T05:14:33;2.42;;;0.75;;
66707;SDS011;53622;0.000;0.000;2022-09-12T05:17:03;4.00;;;0.52;;
66707;SDS011;53622;0.000;0.000;2022-09-12T05:19:32;5.82;;;0.73;;
66707;SDS011;53622;0.000;0.000;2022-09-12T05:22:02;2.60;;;0.60;;
66707;SDS011;53622;0.000;0.000;2022-09-12T05:24:32;2.13;;;0.70;;
66707;SDS011;53622;0.000;0.000;2022-09-12T05:27:03;3.30;;;0.77;;
66707;SDS011;53622;0.000;0.000;2022-09-12T05:29:34;3.58;;;0.82;;
66707;SDS011;53622;0.000;0.000;2022-09-12T05:32:03;2.70;;;1.00;;
66707;SDS011;53622;0.000;0.000;2022-09-12T05:34:33;2.85;;;0.80;;
66707;SDS011;53622;0.000;0.000;2022-09-12T05:37:02;5.18;;;0.80;;
66707;SDS011;53622;0.000;0.000;2022-09-12T05:39:31;3.33;;;0.70;;
66707;SDS011;53622;0.000;0.000;2022-09-12T05:42:00;4.45;;;0.63;;
66707;SDS011;53622;0.000;0.000;2022-09-12T05:44:29;1.73;;;0.60;;
66707;SDS011;53622;0.000;0.000;2022-09-12T05:47:00;1.02;;;0.60;;
66707;SDS011;53622;0.000;0.000;2022-09-12T05:49:29;3.40;;;0.88;;
66707;SDS011;53622;0.000;0.000;2022-09-12T05:51:59;1.55;;;0.63;;
66707;SDS011;53622;0.000;0.000;2022-09-12T05:54:29;3.05;;;0.57;;
66707;SDS011;53622;0.000;0.000;2022-09-12T05:56:59;4.18;;;0.60;;
66707;SDS011;53622;0.000;0.000;2022-09-12T05:59:28;5.35;;;0.70;;
66707;SDS011;53622;0.000;0.000;2022-09-12T06:01:57;2.45;;;0.65;;
66707;SDS011;53622;0.000;0.000;2022-09-12T06:04:28;0.93;;;0.60;;
66707;SDS011;53622;0.000;0.000;2022-09-12T06:06:57;3.53;;;0.88;;
66707;SDS011;53622;0.000;0.000;2022-09-12T06:09:26;1.70;;;0.93;;
66707;SDS011;53622;0.000;0.000;2022-09-12T06:11:55;1.50;;;0.68;;
66707;SDS011;53622;0.000;0.000;2022-09-12T06:14:24;3.08;;;0.70;;
66707;SDS011;53622;0.000;0.000;2022-09-12T06:16:54;2.20;;;0.68;;
66707;SDS011;53622;0.000;0.000;2022-09-12T06:19:23;2.72;;;0.80;;
66707;SDS011;53622;0.000;0.000;2022-09-12T06:21:55;1.48;;;0.50;;
66707;SDS011;53622;0.000;0.000;2022-09-12T06:24:25;3.08;;;0.55;;
66707;SDS011;53622;0.000;0.000;2022-09-12T06:26:54;3.00;;;0.50;;
66707;SDS011;53622;0.000;0.000;2022-09-12T06:29:23;1.42;;;0.80;;
66707;SDS011;53622;0.000;0.000;2022-09-12T06:31:53;0.75;;;0.65;;
66707;SDS011;53622;0.000;0.000;2022-09-12T06:34:22;3.20;;;0.77;;
66707;SDS011;53622;0.000;0.000;2022-09-12T06:36:54;0.82;;;0.55;;
66707;SDS011;53622;0.000;0.000;2022-09-12T06:39:31;0.95;;;0.70;;
66707;SDS011;53622;0.000;0.000;2022-09-12T06:42:01;0.98;;;0.60;;
66707;SDS011;53622;0.000;0.000;2022-09-12T06:44:34;0.75;;;0.50;;
66707;SDS011;53622;0.000;0.000;2022-09-12T06:47:04;0.73;;;0.60;;
66707;SDS011;53622;0.000;0.000;2022-09-12T06:49:33;1.10;;;0.50;;
66707;SDS011;53622;0.000;0.000;2022-09-12T06:52:04;0.57;;;0.50;;
66707;SDS011;53622;0.000;0.000;2022-09-12T06:54:33;1.23;;;0.70;;
66707;SDS011;53622;0.000;0.000;2022-09-12T06:57:02;0.40;;;0.40;;
66707;SDS011;53622;0.000;0.000;2022-09-12T06:59:32;0.47;;;0.40;;
66707;SDS011;53622;0.000;0.000;2022-09-12T07:02:01;1.50;;;0.50;;
66707;SDS011;53622;0.000;0.000;2022-09-12T07:04:30;0.57;;;0.50;;
66707;SDS011;53622;0.000;0.000;2022-09-12T07:07:04;1.20;;;0.63;;
66707;SDS011;53622;0.000;0.000;2022-09-12T07:09:33;1.40;;;0.50;;
66707;SDS011;53622;0.000;0.000;2022-09-12T07:12:02;0.60;;;0.52;;
66707;SDS011;53622;0.000;0.000;2022-09-12T07:14:32;0.73;;;0.68;;
66707;SDS011;53622;0.000;0.000;2022-09-12T07:17:01;3.00;;;0.70;;
66707;SDS011;53622;0.000;0.000;2022-09-12T07:19:31;0.60;;;0.60;;
66707;SDS011;53622;0.000;0.000;2022-09-12T07:22:00;0.50;;;0.50;;
66707;SDS011;53622;0.000;0.000;2022-09-12T07:24:31;1.45;;;0.50;;
66707;SDS011;53622;0.000;0.000;2022-09-12T07:27:00;1.08;;;0.50;;
66707;SDS011;53622;0.000;0.000;2022-09-12T07:29:29;0.60;;;0.57;;
66707;SDS011;53622;0.000;0.000;2022-09-12T07:32:03;2.55;;;0.60;;
66707;SDS011;53622;0.000;0.000;2022-09-12T07:34:33;2.33;;;0.52;;
66707;SDS011;53622;0.000;0.000;2022-09-12T07:37:03;2.53;;;0.60;;
66707;SDS011;53622;0.000;0.000;2022-09-12T07:39:33;0.85;;;0.50;;
66707;SDS011;53622;0.000;0.000;2022-09-12T07:42:04;2.28;;;0.65;;
66707;SDS011;53622;0.000;0.000;2022-09-12T07:44:33;0.52;;;0.50;;
66707;SDS011;53622;0.000;0.000;2022-09-12T07:47:03;0.60;;;0.50;;
66707;SDS011;53622;0.000;0.000;2022-09-12T07:49:32;0.38;;;0.32;;
66707;SDS011;53622;0.000;0.000;2022-09-12T07:52:02;0.40;;;0.40;;
66707;SDS011;53622;0.000;0.000;2022-09-12T07:54:31;0.65;;;0.65;;
66707;SDS011;53622;0.000;0.000;2022-09-12T07:57:04;0.65;;;0.55;;
66707;SDS011;53622;0.000;0.000;2022-09-12T07:59:34;0.65;;;0.40;;
66707;SDS011;53622;0.000;0.000;2022-09-12T08:02:19;1.15;;;0.60;;
66707;SDS011;53622;0.000;0.000;2022-09-12T08:04:48;1.65;;;0.50;;
66707;SDS011;53622;0.000;0.000;2022-09-12T08:07:17;0.95;;;0.57;;
66707;SDS011;53622;0.000;0.000;2022-09-12T08:09:46;0.70;;;0.40;;
66707;SDS011;53622;0.000;0.000;2022-09-12T08:12:17;1.20;;;0.57;;
66707;SDS011;53622;0.000;0.000;2022-09-12T08:14:47;1.05;;;0.40;;
66707;SDS011;53622;0.000;0.000;2022-09-12T08:17:16;0.43;;;0.40;;
66707;SDS011;53622;0.000;0.000;2022-09-12T08:19:45;0.65;;;0.50;;
66707;SDS011;53622;0.000;0.000;2022-09-12T08:22:14;1.17;;;0.40;;
66707;SDS011;53622;0.000;0.000;2022-09-12T08:24:44;0.55;;;0.40;;
66707;SDS011;53622;0.000;0.000;2022-09-12T08:27:13;0.47;;;0.47;;
66707;SDS011;53622;0.000;0.000;2022-09-12T08:29:44;0.63;;;0.50;;
66707;SDS011;53622;0.000;0.000;2022-09-12T08:32:13;0.75;;;0.68;;
66707;SDS011;53622;0.000;0.000;2022-09-12T08:34:43;0.50;;;0.50;;
66707;SDS011;53622;0.000;0.000;2022-09-12T08:37:12;1.25;;;0.50;;
66707;SDS011;53622;0.000;0.000;2022-09-12T08:39:41;1.13;;;0.40;;
66707;SDS011;53622;0.000;0.000;2022-09-12T08:42:14;0.80;;;0.43;;
66707;SDS011;53622;0.000;0.000;2022-09-12T08:44:59;0.77;;;0.60;;
66707;SDS011;53622;0.000;0.000;2022-09-12T08:47:36;0.68;;;0.55;;
66707;SDS011;53622;0.000;0.000;2022-09-12T08:50:11;0.45;;;0.45;;
66707;SDS011;53622;0.000;0.000;2022-09-12T08:52:49;0.60;;;0.57;;
66707;SDS011;53622;0.000;0.000;2022-09-12T08:55:26;0.52;;;0.50;;
66707;SDS011;53622;0.000;0.000;2022-09-12T08:57:59;0.85;;;0.50;;
66707;SDS011;53622;0.000;0.000;2022-09-12T09:00:34;1.58;;;0.60;;
66707;SDS011;53622;0.000;0.000;2022-09-12T09:06:15;0.50;;;0.30;;
66707;SDS011;53622;0.000;0.000;2022-09-12T09:08:53;0.50;;;0.50;;
66707;SDS011;53622;0.000;0.000;2022-09-12T09:11:34;0.82;;;0.50;;
66707;SDS011;53622;0.000;0.000;2022-09-12T09:14:12;1.70;;;0.50;;
66707;SDS011;53622;0.000;0.000;2022-09-12T09:17:13;0.60;;;0.60;;
66707;SDS011;53622;0.000;0.000;2022-09-12T09:19:48;0.75;;;0.43;;
66707;SDS011;53622;0.000;0.000;2022-09-12T09:22:30;1.13;;;0.50;;
66707;SDS011;53622;0.000;0.000;2022-09-12T09:25:06;0.50;;;0.50;;
66707;SDS011;53622;0.000;0.000;2022-09-12T09:27:40;0.88;;;0.60;;
66707;SDS011;53622;0.000;0.000;2022-09-12T09:30:15;2.00;;;0.60;;
66707;SDS011;53622;0.000;0.000;2022-09-12T09:32:47;0.70;;;0.60;;
66707;SDS011;53622;0.000;0.000;2022-09-12T09:35:21;0.70;;;0.60;;
66707;SDS011;53622;0.000;0.000;2022-09-12T09:38:05;0.60;;;0.50;;
66707;SDS011;53622;0.000;0.000;2022-09-12T09:40:44;0.75;;;0.60;;
66707;SDS011;53622;0.000;0.000;2022-09-12T09:43:19;1.00;;;0.70;;
66707;SDS011;53622;0.000;0.000;2022-09-12T09:45:51;1.42;;;0.52;;
66707;SDS011;53622;0.000;0.000;2022-09-12T09:48:23;0.47;;;0.45;;
66707;SDS011;53622;0.000;0.000;2022-09-12T09:50:56;0.52;;;0.47;;
66707;SDS011;53622;0.000;0.000;2022-09-12T09:53:31;1.23;;;0.60;;
66707;SDS011;53622;0.000;0.000;2022-09-12T09:56:06;0.50;;;0.50;;
66707;SDS011;53622;0.000;0.000;2022-09-12T09:58:40;1.08;;;0.77;;
66707;SDS011;53622;0.000;0.000;2022-09-12T10:01:11;1.25;;;0.80;;
66707;SDS011;53622;0.000;0.000;2022-09-12T10:03:49;0.63;;;0.50;;
66707;SDS011;53622;0.000;0.000;2022-09-12T10:06:24;1.08;;;0.55;;
66707;SDS011;53622;0.000;0.000;2022-09-12T10:11:47;0.88;;;0.70;;
66707;SDS011;53622;0.000;0.000;2022-09-12T10:14:31;0.85;;;0.70;;
66707;SDS011;53622;0.000;0.000;2022-09-12T10:17:20;0.77;;;0.60;;
66707;SDS011;53622;0.000;0.000;2022-09-12T10:20:02;0.80;;;0.50;;
66707;SDS011;53622;0.000;0.000;2022-09-12T10:22:48;1.20;;;0.77;;
66707;SDS011;53622;0.000;0.000;2022-09-12T10:25:17;0.82;;;0.57;;
66707;SDS011;53622;0.000;0.000;2022-09-12T10:27:51;3.05;;;0.65;;
66707;SDS011;53622;0.000;0.000;2022-09-12T10:30:23;0.77;;;0.70;;
66707;SDS011;53622;0.000;0.000;2022-09-12T10:32:57;1.45;;;0.80;;
66707;SDS011;53622;0.000;0.000;2022-09-12T10:35:43;0.85;;;0.63;;
66707;SDS011;53622;0.000;0.000;2022-09-12T10:38:16;0.57;;;0.57;;
66707;SDS011;53622;0.000;0.000;2022-09-12T10:40:54;0.70;;;0.70;;
66707;SDS011;53622;0.000;0.000;2022-09-12T10:43:25;1.13;;;0.77;;
66707;SDS011;53622;0.000;0.000;2022-09-12T10:45:57;0.60;;;0.60;;
66707;SDS011;53622;0.000;0.000;2022-09-12T10:48:28;1.60;;;0.70;;
66707;SDS011;53622;0.000;0.000;2022-09-12T10:51:01;0.60;;;0.60;;
66707;SDS011;53622;0.000;0.000;2022-09-12T10:53:31;0.75;;;0.45;;
66707;SDS011;53622;0.000;0.000;2022-09-12T10:56:08;1.08;;;0.68;;
66707;SDS011;53622;0.000;0.000;2022-09-12T10:58:55;1.10;;;0.63;;
66707;SDS011;53622;0.000;0.000;2022-09-12T11:01:36;0.45;;;0.45;;
66707;SDS011;53622;0.000;0.000;2022-09-12T11:04:13;1.27;;;0.50;;
66707;SDS011;53622;0.000;0.000;2022-09-12T11:07:04;1.75;;;0.70;;
66707;SDS011;53622;0.000;0.000;2022-09-12T11:09:48;0.77;;;0.70;;
66707;SDS011;53622;0.000;0.000;2022-09-12T11:12:26;0.77;;;0.60;;
66707;SDS011;53622;0.000;0.000;2022-09-12T11:15:12;0.57;;;0.47;;
66707;SDS011;53622;0.000;0.000;2022-09-12T11:17:58;0.50;;;0.50;;
66707;SDS011;53622;0.000;0.000;2022-09-12T11:20:53;1.45;;;0.60;;
66707;SDS011;53622;0.000;0.000;2022-09-12T11:29:43;0.93;;;0.50;;
66707;SDS011;53622;0.000;0.000;2022-09-12T11:35:10;0.60;;;0.60;;
66707;SDS011;53622;0.000;0.000;2022-09-12T11:37:49;0.75;;;0.52;;
66707;SDS011;53622;0.000;0.000;2022-09-12T11:40:32;3.25;;;0.60;;
66707;SDS011;53622;0.000;0.000;2022-09-12T11:43:10;1.95;;;0.70;;
66707;SDS011;53622;0.000;0.000;2022-09-12T11:45:46;2.05;;;0.55;;
66707;SDS011;53622;0.000;0.000;2022-09-12T11:48:18;0.82;;;0.70;;
66707;SDS011;53622;0.000;0.000;2022-09-12T11:51:00;0.50;;;0.50;;
66707;SDS011;53622;0.000;0.000;2022-09-12T11:53:32;1.10;;;0.50;;
66707;SDS011;53622;0.000;0.000;2022-09-12T11:56:09;1.02;;;0.88;;
66707;SDS011;53622;0.000;0.000;2022-09-12T11:58:48;0.82;;;0.60;;
66707;SDS011;53622;0.000;0.000;2022-09-12T12:01:24;0.73;;;0.50;;
66707;SDS011;53622;0.000;0.000;2022-09-12T12:03:57;1.25;;;0.73;;
66707;SDS011;53622;0.000;0.000;2022-09-12T12:06:37;0.55;;;0.52;;
66707;SDS011;53622;0.000;0.000;2022-09-12T12:09:20;0.80;;;0.50;;
66707;SDS011;53622;0.000;0.000;2022-09-12T12:11:50;0.85;;;0.52;;
66707;SDS011;53622;0.000;0.000;2022-09-12T12:14:25;1.02;;;0.50;;
66707;SDS011;53622;0.000;0.000;2022-09-12T12:16:59;0.60;;;0.40;;
66707;SDS011;53622;0.000;0.000;2022-09-12T12:19:32;0.77;;;0.50;;
66707;SDS011;53622;0.000;0.000;2022-09-12T12:22:06;0.40;;;0.40;;
66707;SDS011;53622;0.000;0.000;2022-09-12T12:25:03;0.70;;;0.40;;
66707;SDS011;53622;0.000;0.000;2022-09-12T12:27:45;0.70;;;0.60;;
66707;SDS011;53622;0.000;0.000;2022-09-12T12:36:35;0.52;;;0.47;;
66707;SDS011;53622;0.000;0.000;2022-09-12T12:51:36;1.75;;;0.50;;
66707;SDS011;53622;0.000;0.000;2022-09-12T12:57:27;1.35;;;0.60;;
66707;SDS011;53622;0.000;0.000;2022-09-12T13:00:07;0.50;;;0.40;;
66707;SDS011;53622;0.000;0.000;2022-09-12T13:02:56;1.42;;;0.80;;
66707;SDS011;53622;0.000;0.000;2022-09-12T13:05:29;0.52;;;0.50;;
66707;SDS011;53622;0.000;0.000;2022-09-12T13:08:08;0.82;;;0.63;;
66707;SDS011;53622;0.000;0.000;2022-09-12T13:10:55;0.80;;;0.50;;
66707;SDS011;53622;0.000;0.000;2022-09-12T13:13:30;0.73;;;0.50;;
66707;SDS011;53622;0.000;0.000;2022-09-12T13:16:03;1.20;;;0.60;;
66707;SDS011;53622;0.000;0.000;2022-09-12T13:18:38;0.60;;;0.60;;
66707;SDS011;53622;0.000;0.000;2022-09-12T13:21:12;0.47;;;0.47;;
66707;SDS011;53622;0.000;0.000;2022-09-12T13:23:43;0.90;;;0.70;;
66707;SDS011;53622;0.000;0.000;2022-09-12T13:26:27;0.68;;;0.65;;
66707;SDS011;53622;0.000;0.000;2022-09-12T13:29:13;0.57;;;0.55;;
66707;SDS011;53622;0.000;0.000;2022-09-12T13:31:45;0.50;;;0.50;;
66707;SDS011;53622;0.000;0.000;2022-09-12T13:34:17;0.63;;;0.47;;
66707;SDS011;53622;0.000;0.000;2022-09-12T13:39:53;0.57;;;0.50;;
66707;SDS011;53622;0.000;0.000;2022-09-12T13:42:37;0.43;;;0.43;;
66707;SDS011;53622;0.000;0.000;2022-09-12T13:45:12;0.45;;;0.40;;
66707;SDS011;53622;0.000;0.000;2022-09-12T13:47:47;0.40;;;0.40;;
66707;SDS011;53622;0.000;0.000;2022-09-12T13:50:25;1.02;;;0.60;;
66707;SDS011;53622;0.000;0.000;2022-09-12T13:52:58;0.52;;;0.52;;
66707;SDS011;53622;0.000;0.000;2022-09-12T13:55:30;0.40;;;0.40;;
66707;SDS011;53622;0.000;0.000;2022-09-12T13:58:01;0.50;;;0.50;;
66707;SDS011;53622;0.000;0.000;2022-09-12T14:00:32;0.52;;;0.40;;
66707;SDS011;53622;0.000;0.000;2022-09-12T14:03:13;0.57;;;0.50;;
66707;SDS011;53622;0.000;0.000;2022-09-12T14:06:10;1.10;;;0.60;;
66707;SDS011;53622;0.000;0.000;2022-09-12T14:08:44;0.40;;;0.40;;
66707;SDS011;53622;0.000;0.000;2022-09-12T14:11:17;0.40;;;0.40;;
66707;SDS011;53622;0.000;0.000;2022-09-12T14:13:52;0.70;;;0.32;;
66707;SDS011;53622;0.000;0.000;2022-09-12T14:16:22;0.22;;;0.22;;
66707;SDS011;53622;0.000;0.000;2022-09-12T14:18:53;0.70;;;0.50;;
66707;SDS011;53622;0.000;0.000;2022-09-12T14:21:31;0.47;;;0.40;;
66707;SDS011;53622;0.000;0.000;2022-09-12T14:24:05;0.43;;;0.43;;
66707;SDS011;53622;0.000;0.000;2022-09-12T14:26:36;0.55;;;0.47;;
66707;SDS011;53622;0.000;0.000;2022-09-12T14:29:07;0.32;;;0.32;;
66707;SDS011;53622;0.000;0.000;2022-09-12T14:31:39;0.40;;;0.40;;
66707;SDS011;53622;0.000;0.000;2022-09-12T14:34:11;0.52;;;0.47;;
66707;SDS011;53622;0.000;0.000;2022-09-12T14:36:42;0.70;;;0.50;;
66707;SDS011;53622;0.000;0.000;2022-09-12T14:39:22;0.50;;;0.50;;
66707;SDS011;53622;0.000;0.000;2022-09-12T14:42:03;1.13;;;0.50;;
66707;SDS011;53622;0.000;0.000;2022-09-12T14:44:34;1.33;;;0.57;;
66707;SDS011;53622;0.000;0.000;2022-09-12T14:47:11;0.50;;;0.50;;
66707;SDS011;53622;0.000;0.000;2022-09-12T14:49:45;0.35;;;0.35;;
66707;SDS011;53622;0.000;0.000;2022-09-12T14:52:22;0.85;;;0.45;;
66707;SDS011;53622;0.000;0.000;2022-09-12T14:54:59;0.50;;;0.40;;
66707;SDS011;53622;0.000;0.000;2022-09-12T14:57:31;0.85;;;0.50;;
66707;SDS011;53622;0.000;0.000;2022-09-12T15:00:12;0.35;;;0.35;;
66707;SDS011;53622;0.000;0.000;2022-09-12T15:02:48;0.40;;;0.40;;
66707;SDS011;53622;0.000;0.000;2022-09-12T15:05:20;0.75;;;0.57;;
66707;SDS011;53622;0.000;0.000;2022-09-12T15:07:53;0.40;;;0.40;;
66707;SDS011;53622;0.000;0.000;2022-09-12T15:10:29;5.28;;;0.90;;
66707;SDS011;53622;0.000;0.000;2022-09-12T15:13:16;3.05;;;0.60;;
66707;SDS011;53622;0.000;0.000;2022-09-12T15:15:47;2.85;;;0.73;;
66707;SDS011;53622;0.000;0.000;2022-09-12T15:18:19;2.67;;;0.65;;
66707;SDS011;53622;0.000;0.000;2022-09-12T15:20:50;1.95;;;0.52;;
66707;SDS011;53622;0.000;0.000;2022-09-12T15:23:32;5.85;;;1.08;;
66707;SDS011;53622;0.000;0.000;2022-09-12T15:26:06;4.00;;;0.90;;
66707;SDS011;53622;0.000;0.000;2022-09-12T15:28:37;2.92;;;1.08;;
66707;SDS011;53622;0.000;0.000;2022-09-12T15:31:09;2.53;;;0.80;;
66707;SDS011;53622;0.000;0.000;2022-09-12T15:33:42;2.63;;;0.77;;
66707;SDS011;53622;0.000;0.000;2022-09-12T15:36:12;1.10;;;0.63;;
66707;SDS011;53622;0.000;0.000;2022-09-12T15:38:43;1.75;;;0.63;;
66707;SDS011;53622;0.000;0.000;2022-09-12T15:41:17;1.85;;;0.80;;
66707;SDS011;53622;0.000;0.000;2022-09-12T15:43:47;2.15;;;0.70;;
66707;SDS011;53622;0.000;0.000;2022-09-12T15:46:17;1.17;;;0.70;;
66707;SDS011;53622;0.000;0.000;2022-09-12T15:48:48;0.52;;;0.50;;
66707;SDS011;53622;0.000;0.000;2022-09-12T15:51:18;1.02;;;0.50;;
66707;SDS011;53622;0.000;0.000;2022-09-12T15:53:49;1.52;;;0.70;;
66707;SDS011;53622;0.000;0.000;2022-09-12T15:56:21;1.75;;;0.73;;
66707;SDS011;53622;0.000;0.000;2022-09-12T15:58:50;1.85;;;0.70;;
66707;SDS011;53622;0.000;0.000;2022-09-12T16:01:25;2.05;;;0.60;;
66707;SDS011;53622;0.000;0.000;2022-09-12T16:03:56;2.22;;;0.52;;
66707;SDS011;53622;0.000;0.000;2022-09-12T16:06:26;1.15;;;0.63;;
66707;SDS011;53622;0.000;0.000;2022-09-12T16:09:03;0.50;;;0.50;;
66707;SDS011;53622;0.000;0.000;2022-09-12T16:11:34;1.45;;;0.60;;
66707;SDS011;53622;0.000;0.000;2022-09-12T16:14:03;1.88;;;0.52;;
66707;SDS011;53622;0.000;0.000;2022-09-12T16:16:32;0.50;;;0.50;;
66707;SDS011;53622;0.000;0.000;2022-09-12T16:19:02;0.55;;;0.50;;
66707;SDS011;53622;0.000;0.000;2022-09-12T16:21:31;1.42;;;0.40;;
66707;SDS011;53622;0.000;0.000;2022-09-12T16:24:01;0.50;;;0.50;;